Time;durP1;ratioP1;P1;durP2;ratioP2;P2;SDS_P1;SDS_P2;PMS_P1;PMS_P2;Temp;Humidity;BMP_temperature;BMP_pressure;BME280_temperature;BME280_humidity;BME280_pressure;Samples;Min_cycle;Max_cycle;Signal;HPM_P1;HPM_P2
2022/05/07 00:00:46;;;;;;;3.20;3.00;;;;;;;14.38;47.27;101991.28;4985049;28;115676;-46
2022/05/07 00:03:12;;;;;;;3.00;2.80;;;;;;;14.37;47.44;101990.53;4986647;28;114388;-46
2022/05/07 00:05:37;;;;;;;2.93;2.60;;;;;;;14.37;47.28;101989.78;4987107;28;100720;-49
2022/05/07 00:08:04;;;;;;;2.83;2.67;;;;;;;14.35;47.55;101983.97;4981839;28;110248;-46
2022/05/07 00:10:29;;;;;;;3.10;2.90;;;;;;;14.35;47.45;101986.72;4988516;28;97171;-46
2022/05/07 00:12:54;;;;;;;3.13;2.93;;;;;;;14.34;47.61;101987.97;4990149;28;97134;-46
2022/05/07 00:15:20;;;;;;;3.03;2.83;;;;;;;14.32;47.50;101984.94;4985840;28;126716;-47
2022/05/07 00:18:05;;;;;;;3.00;2.80;;;;;;;14.33;47.64;101986.47;4985916;28;97084;-47
2022/05/07 00:20:32;;;;;;;3.03;2.83;;;;;;;14.34;47.48;101977.66;4986574;28;96877;-47
2022/05/07 00:22:58;;;;;;;2.53;2.43;;;;;;;14.33;47.53;101981.66;4987408;28;97488;-47
2022/05/07 00:25:24;;;;;;;2.53;2.43;;;;;;;14.31;47.71;101986.94;4985498;28;97507;-48
2022/05/07 00:27:49;;;;;;;3.00;2.80;;;;;;;14.30;47.70;101976.34;4989926;28;97329;-46
2022/05/07 00:30:15;;;;;;;3.47;3.20;;;;;;;14.30;47.65;101974.34;4990095;28;111635;-46
2022/05/07 00:32:40;;;;;;;2.83;2.63;;;;;;;14.30;47.64;101974.34;4994748;28;96920;-47
2022/05/07 00:35:06;;;;;;;3.17;2.70;;;;;;;14.30;47.67;101973.56;4990794;28;126712;-47
2022/05/07 00:37:32;;;;;;;3.63;3.30;;;;;;;14.30;47.63;101977.13;4993331;28;98915;-47
2022/05/07 00:39:57;;;;;;;4.90;2.80;;;;;;;14.32;47.76;101974.63;4991786;28;110695;-47
2022/05/07 00:42:23;;;;;;;3.30;3.10;;;;;;;14.31;47.84;101975.13;4989851;28;99106;-47
2022/05/07 00:44:48;;;;;;;4.33;3.07;;;;;;;14.26;47.90;101977.28;4990125;28;96987;-47
2022/05/07 00:47:13;;;;;;;4.00;2.93;;;;;;;14.24;48.10;101970.72;4986253;28;97164;-47
2022/05/07 00:49:40;;;;;;;2.63;2.53;;;;;;;14.23;48.03;101974.72;4989209;28;97213;-47
2022/05/07 00:52:06;;;;;;;3.30;3.10;;;;;;;14.20;48.32;101978.47;4990092;28;97338;-46
2022/05/07 00:54:31;;;;;;;2.97;2.77;;;;;;;14.14;48.09;101974.88;4992878;28;96782;-47
2022/05/07 00:56:56;;;;;;;2.80;2.60;;;;;;;14.11;48.24;101971.06;4988849;28;117520;-47
2022/05/07 00:59:22;;;;;;;3.20;3.00;;;;;;;14.12;48.24;101966.28;4993611;28;116483;-47
2022/05/07 01:01:47;;;;;;;3.50;3.30;;;;;;;14.14;48.46;101961.03;4991828;28;96976;-46
2022/05/07 01:04:12;;;;;;;3.20;3.00;;;;;;;14.12;48.43;101958.75;4988118;28;110917;-46
2022/05/07 01:06:38;;;;;;;4.60;2.40;;;;;;;14.08;48.50;101954.69;4990475;28;97099;-45
2022/05/07 01:09:04;;;;;;;3.40;3.07;;;;;;;14.02;48.59;101962.88;4990743;28;97208;-46
2022/05/07 01:11:29;;;;;;;3.57;3.27;;;;;;;13.99;48.69;101957.56;4989679;28;97663;-46
2022/05/07 01:13:55;;;;;;;3.30;3.10;;;;;;;13.98;48.56;101956.03;4988909;28;97293;-46
2022/05/07 01:16:20;;;;;;;3.03;2.83;;;;;;;13.97;48.75;101960.06;4991708;28;98410;-48
2022/05/07 01:18:46;;;;;;;2.70;2.50;;;;;;;14.00;48.84;101954.31;4991723;28;96762;-46
2022/05/07 01:21:12;;;;;;;3.13;2.80;;;;;;;14.00;48.56;101959.84;4991388;28;97012;-47
2022/05/07 01:23:40;;;;;;;3.57;3.27;;;;;;;13.99;48.90;101960.34;4989774;28;97995;-47
2022/05/07 01:26:05;;;;;;;3.17;2.83;;;;;;;13.95;48.78;101957.78;4987275;28;97063;-46
2022/05/07 01:28:30;;;;;;;2.80;2.70;;;;;;;13.91;49.00;101954.44;4988093;28;97073;-46
2022/05/07 01:30:55;;;;;;;2.93;2.70;;;;;;;13.94;48.97;101961.03;4986793;28;110835;-46
2022/05/07 01:33:21;;;;;;;3.20;3.00;;;;;;;13.97;49.09;101960.06;4986963;28;97308;-46
2022/05/07 01:35:46;;;;;;;4.00;3.57;;;;;;;13.96;48.97;101941.94;4988259;28;97675;-45
2022/05/07 01:38:11;;;;;;;3.27;3.07;;;;;;;13.96;49.20;101947.47;4988477;28;116043;-45
2022/05/07 01:40:37;;;;;;;3.20;3.00;;;;;;;13.95;49.13;101935.66;4989812;28;117000;-45
2022/05/07 01:43:02;;;;;;;3.57;3.37;;;;;;;13.96;49.12;101944.69;4986969;28;116022;-46
2022/05/07 01:45:28;;;;;;;5.20;2.67;;;;;;;13.95;49.22;101941.19;4987170;28;96998;-47
2022/05/07 01:48:11;;;;;;;3.37;2.93;;;;;;;13.95;49.44;101934.88;4990294;28;96900;-46
2022/05/07 01:50:39;;;;;;;2.93;2.73;;;;;;;13.98;49.47;101945.75;4991078;28;96891;-47
2022/05/07 01:53:06;;;;;;;3.07;2.87;;;;;;;13.99;49.38;101949.28;4988612;28;97450;-45
2022/05/07 01:55:33;;;;;;;3.30;3.10;;;;;;;14.00;49.29;101937.72;4986487;28;97066;-47
2022/05/07 01:57:58;;;;;;;3.30;3.10;;;;;;;14.02;49.34;101948.31;4987297;28;97201;-47
2022/05/07 02:00:23;;;;;;;4.33;3.00;;;;;;;14.01;49.35;101944.00;4990206;28;96954;-47
2022/05/07 02:02:49;;;;;;;3.70;3.30;;;;;;;14.00;49.41;101939.75;4987456;28;126790;-47
2022/05/07 02:05:14;;;;;;;3.70;3.00;;;;;;;13.98;49.44;101944.97;4989366;28;117873;-47
2022/05/07 02:07:39;;;;;;;2.87;2.67;;;;;;;13.96;49.78;101928.84;4987110;28;111334;-46
2022/05/07 02:10:05;;;;;;;3.70;3.40;;;;;;;13.94;49.43;101936.13;4988483;28;115568;-47
2022/05/07 02:12:30;;;;;;;3.20;3.00;;;;;;;13.92;49.58;101930.31;4989820;28;97499;-46
2022/05/07 02:14:55;;;;;;;4.67;3.43;;;;;;;13.88;49.64;101927.00;4988874;28;126617;-48
2022/05/07 02:17:21;;;;;;;3.33;3.13;;;;;;;13.83;49.58;101933.97;4986566;28;97112;-47
2022/05/07 02:19:46;;;;;;;3.37;3.10;;;;;;;13.80;49.69;101928.66;4986546;28;115413;-50
2022/05/07 02:22:11;;;;;;;3.10;2.90;;;;;;;13.78;49.80;101922.84;4988989;28;98110;-47
2022/05/07 02:24:36;;;;;;;3.70;3.37;;;;;;;13.76;49.91;101930.88;4988636;28;125328;-48
2022/05/07 02:27:03;;;;;;;4.43;3.53;;;;;;;13.71;49.84;101924.03;4990510;28;97457;-46
2022/05/07 02:29:28;;;;;;;3.20;2.93;;;;;;;13.71;49.99;101932.31;4985933;28;97684;-47
2022/05/07 02:32:06;;;;;;;3.00;2.80;;;;;;;13.70;50.00;101933.56;4988415;28;126814;-46
2022/05/07 02:34:32;;;;;;;3.10;2.90;;;;;;;13.71;49.95;101937.09;4987328;28;101562;-47
2022/05/07 02:36:58;;;;;;;3.50;3.20;;;;;;;13.69;50.08;101934.81;4987056;28;97083;-47
2022/05/07 02:39:24;;;;;;;3.17;2.97;;;;;;;13.65;50.05;101937.00;4989225;28;96785;-47
2022/05/07 02:44:33;;;;;;;3.33;3.10;;;;;;;13.51;50.03;101937.81;4989931;28;100191;-47
2022/05/07 02:46:58;;;;;;;3.50;3.23;;;;;;;13.45;50.14;101937.00;4984880;28;120082;-46
2022/05/07 02:49:24;;;;;;;3.77;3.47;;;;;;;13.42;50.26;101933.19;4986664;28;117696;-48
2022/05/07 02:51:49;;;;;;;4.97;3.27;;;;;;;13.43;50.54;101934.69;4986622;28;125427;-47
2022/05/07 02:54:14;;;;;;;3.70;3.40;;;;;;;13.44;50.27;101944.50;4988683;28;125377;-47
2022/05/07 02:56:40;;;;;;;3.60;3.30;;;;;;;13.45;50.46;101943.25;4985029;28;118198;-47
2022/05/07 02:59:05;;;;;;;4.20;3.80;;;;;;;13.43;50.33;101939.47;4990437;28;104072;-47
2022/05/07 03:01:30;;;;;;;3.70;3.40;;;;;;;13.41;50.43;101945.47;4986998;28;126088;-47
2022/05/07 03:03:56;;;;;;;3.37;3.10;;;;;;;13.39;50.38;101939.66;4986419;28;97496;-47
2022/05/07 03:06:21;;;;;;;4.13;3.73;;;;;;;13.39;50.50;101950.72;4984709;28;117163;-46
2022/05/07 03:08:47;;;;;;;4.27;3.97;;;;;;;13.35;50.46;101950.16;4986294;28;97037;-47
2022/05/07 03:11:13;;;;;;;4.17;3.87;;;;;;;13.34;50.55;101947.88;4987657;28;96661;-47
2022/05/07 03:13:39;;;;;;;3.97;3.73;;;;;;;13.34;50.61;101951.41;4987500;28;96801;-47
2022/05/07 03:16:05;;;;;;;6.33;3.87;;;;;;;13.35;50.73;101955.69;4986695;28;97091;-50
2022/05/07 03:18:30;;;;;;;3.40;3.10;;;;;;;13.37;50.75;101944.13;4985407;28;96976;-46
2022/05/07 03:20:56;;;;;;;4.17;3.87;;;;;;;13.37;50.73;101947.66;4985657;28;120728;-47
2022/05/07 03:23:22;;;;;;;5.00;3.90;;;;;;;13.35;50.79;101946.63;4986911;28;97094;-47
2022/05/07 03:25:47;;;;;;;4.10;3.80;;;;;;;13.36;51.01;101957.22;4986336;28;118768;-47
2022/05/07 03:28:12;;;;;;;4.30;3.90;;;;;;;13.38;50.92;101946.44;4988504;28;97285;-47
2022/05/07 03:30:37;;;;;;;3.70;3.40;;;;;;;13.38;50.95;101948.44;4986282;28;97337;-47
2022/05/07 03:33:03;;;;;;;3.97;3.67;;;;;;;13.37;50.74;101946.91;4987188;28;109677;-46
2022/05/07 03:35:29;;;;;;;3.80;3.37;;;;;;;13.39;51.05;101947.19;4974873;28;115925;-47
2022/05/07 03:37:55;;;;;;;4.37;3.97;;;;;;;13.41;50.88;101951.00;4986402;28;96908;-48
2022/05/07 03:40:20;;;;;;;5.00;4.10;;;;;;;13.38;50.92;101954.72;4987210;28;97496;-47
2022/05/07 03:42:45;;;;;;;3.53;3.23;;;;;;;13.37;50.90;101949.66;4987682;28;98319;-46
2022/05/07 03:45:11;;;;;;;3.60;3.40;;;;;;;13.37;51.14;101947.66;4987208;28;97092;-47
2022/05/07 03:47:36;;;;;;;3.60;3.30;;;;;;;13.39;51.10;101938.88;4987337;28;96619;-46
2022/05/07 03:50:01;;;;;;;3.77;3.47;;;;;;;13.41;51.25;101947.50;4988080;28;97304;-45
2022/05/07 03:55:11;;;;;;;3.97;3.67;;;;;;;13.45;51.05;101940.50;4990040;28;96726;-46
2022/05/07 03:57:36;;;;;;;4.30;4.00;;;;;;;13.46;51.11;101950.31;4985114;28;116758;-46
2022/05/07 04:00:02;;;;;;;3.93;3.60;;;;;;;13.49;51.31;101949.38;4986783;28;127271;-47
2022/05/07 04:02:27;;;;;;;3.53;3.23;;;;;;;13.45;51.03;101948.03;4990895;28;98503;-46
2022/05/07 04:04:52;;;;;;;3.83;3.50;;;;;;;13.39;51.35;101950.72;4989896;28;97037;-47
2022/05/07 04:07:18;;;;;;;4.70;4.13;;;;;;;13.33;51.59;101960.16;4988824;28;99791;-47
2022/05/07 04:09:43;;;;;;;4.40;4.00;;;;;;;13.25;51.58;101959.81;4991395;28;97032;-46
2022/05/07 04:12:11;;;;;;;3.90;3.60;;;;;;;13.24;51.78;101965.78;4988108;28;113142;-47
2022/05/07 04:14:36;;;;;;;4.00;3.70;;;;;;;13.22;51.82;101965.50;4993347;28;97018;-46
2022/05/07 04:17:01;;;;;;;4.37;4.00;;;;;;;13.20;51.78;101971.53;4989603;28;116715;-46
2022/05/07 04:19:26;;;;;;;4.40;3.77;;;;;;;13.21;51.96;101973.06;4988377;28;98638;-47
2022/05/07 04:21:52;;;;;;;4.00;3.70;;;;;;;13.25;52.06;101968.09;4989733;28;102344;-46
2022/05/07 04:24:17;;;;;;;4.40;4.00;;;;;;;13.30;52.05;101974.97;4991206;28;97011;-47
2022/05/07 04:26:42;;;;;;;4.03;3.70;;;;;;;13.33;52.06;101969.22;4988822;28;97086;-46
2022/05/07 04:29:08;;;;;;;8.53;4.23;;;;;;;13.43;52.21;101976.16;4985994;28;126646;-47
2022/05/07 04:31:33;;;;;;;5.03;4.53;;;;;;;13.51;52.12;101969.00;4991395;28;116550;-47
2022/05/07 04:33:58;;;;;;;5.70;5.20;;;;;;;13.62;52.11;101968.41;4989757;28;115217;-47
2022/05/07 04:36:24;;;;;;;3.87;3.57;;;;;;;13.71;51.84;101964.75;4988569;28;116260;-46
2022/05/07 04:38:49;;;;;;;4.90;4.50;;;;;;;13.79;52.03;101965.84;4989682;28;96613;-47
2022/05/07 04:41:14;;;;;;;4.70;4.20;;;;;;;13.90;52.04;101969.53;4990062;28;111273;-47
2022/05/07 04:43:39;;;;;;;7.20;3.97;;;;;;;14.01;51.85;101980.75;4985621;28;118194;-45
2022/05/07 04:46:05;;;;;;;4.17;3.87;;;;;;;14.10;51.87;101977.09;4984255;28;115611;-47
2022/05/07 04:48:30;;;;;;;4.10;3.80;;;;;;;14.20;51.97;101978.47;4987587;28;127201;-47
2022/05/07 04:50:56;;;;;;;4.50;4.10;;;;;;;14.28;51.90;101979.56;4990549;28;97123;-46
2022/05/07 04:53:21;;;;;;;5.07;4.67;;;;;;;14.36;51.78;101971.63;4990459;28;116949;-47
2022/05/07 04:55:46;;;;;;;4.30;4.00;;;;;;;14.44;51.82;101972.75;4986508;28;111274;-47
2022/05/07 04:58:11;;;;;;;5.03;4.60;;;;;;;14.53;51.80;101978.09;4988729;28;97444;-47
2022/05/07 05:00:37;;;;;;;4.97;4.57;;;;;;;14.60;51.87;101981.22;4988496;28;126842;-53
2022/05/07 05:03:02;;;;;;;5.57;5.07;;;;;;;14.67;51.84;101975.25;4989309;28;97321;-47
2022/05/07 05:05:29;;;;;;;4.60;4.20;;;;;;;14.69;51.73;101977.53;4992664;28;96870;-46
2022/05/07 05:07:55;;;;;;;5.53;4.47;;;;;;;14.73;52.00;101989.16;4988336;28;97569;-47
2022/05/07 05:10:20;;;;;;;5.33;4.40;;;;;;;14.76;51.76;101980.63;4990290;28;96807;-47
2022/05/07 05:12:46;;;;;;;4.37;3.93;;;;;;;14.83;51.91;101976.66;4988543;28;97660;-47
2022/05/07 05:15:11;;;;;;;4.33;3.93;;;;;;;14.89;51.79;101983.78;4990300;28;96943;-46
2022/05/07 05:17:37;;;;;;;4.53;4.10;;;;;;;14.93;51.85;101984.31;4988149;28;119831;-47
2022/05/07 05:20:04;;;;;;;5.27;4.43;;;;;;;14.99;51.87;101985.13;4988437;28;97401;-47
2022/05/07 05:22:30;;;;;;;8.00;4.30;;;;;;;15.04;52.07;101991.97;4987822;28;96988;-46
2022/05/07 05:24:55;;;;;;;5.67;4.70;;;;;;;15.06;51.94;101997.03;4988977;28;96998;-46
2022/05/07 05:27:21;;;;;;;5.47;4.97;;;;;;;15.09;52.06;101996.81;4987272;28;96934;-47
2022/05/07 05:29:47;;;;;;;5.47;5.00;;;;;;;15.12;52.06;102006.91;4988127;28;97021;-46
2022/05/07 05:32:17;;;;;;;5.00;4.50;;;;;;;15.18;52.18;102004.19;4987664;28;96769;-46
2022/05/07 05:34:44;;;;;;;5.60;4.87;;;;;;;15.22;52.13;102005.50;4988768;28;97248;-47
2022/05/07 05:37:09;;;;;;;6.23;5.63;;;;;;;15.27;52.05;101999.22;4986861;28;97381;-48
2022/05/07 05:39:35;;;;;;;5.37;4.87;;;;;;;15.30;51.96;102001.00;4988179;28;109774;-47
2022/05/07 05:42:00;;;;;;;5.50;4.90;;;;;;;15.33;52.08;102000.00;4988232;28;118129;-47
2022/05/07 05:44:25;;;;;;;6.50;5.73;;;;;;;15.37;52.08;102008.13;4987998;28;117234;-47
2022/05/07 05:46:50;;;;;;;5.43;4.80;;;;;;;15.38;52.26;102004.09;4987328;28;125673;-47
2022/05/07 05:49:16;;;;;;;5.80;5.10;;;;;;;15.41;52.17;102014.97;4986738;28;126868;-46
2022/05/07 05:51:41;;;;;;;6.20;5.60;;;;;;;15.43;52.29;102017.25;4988044;28;97040;-46
2022/05/07 05:54:06;;;;;;;9.67;5.73;;;;;;;15.41;52.56;102012.19;4988321;28;116622;-47
2022/05/07 05:56:31;;;;;;;6.60;5.37;;;;;;;15.43;52.74;102026.34;4986983;28;96779;-46
2022/05/07 05:58:57;;;;;;;5.80;5.40;;;;;;;15.43;52.92;102020.81;4989353;28;125387;-47
2022/05/07 06:01:22;;;;;;;5.20;4.77;;;;;;;15.42;53.03;102016.47;4987803;28;97098;-47
2022/05/07 06:03:48;;;;;;;5.77;5.27;;;;;;;15.44;53.10;102019.53;4971936;28;116883;-47
2022/05/07 06:06:13;;;;;;;8.67;6.60;;;;;;;15.46;53.18;102019.84;4985753;28;97387;-46
2022/05/07 06:08:38;;;;;;;6.80;6.17;;;;;;;15.50;53.28;102014.81;4982516;28;127850;-46
2022/05/07 06:11:04;;;;;;;6.47;5.87;;;;;;;15.53;53.41;102013.81;4987500;28;102261;-47
2022/05/07 06:13:31;;;;;;;6.70;6.00;;;;;;;15.56;53.43;102010.06;4989167;28;97106;-46
2022/05/07 06:15:56;;;;;;;6.87;6.17;;;;;;;15.60;53.56;102015.38;4985908;28;97512;-45
2022/05/07 06:18:22;;;;;;;6.40;5.83;;;;;;;15.67;53.71;102023.25;4991092;28;98284;-45
2022/05/07 06:20:49;;;;;;;7.23;6.30;;;;;;;15.71;53.65;102015.44;4988820;28;97218;-45
2022/05/07 06:23:17;;;;;;;6.80;6.10;;;;;;;15.77;53.88;102021.78;4987581;28;96701;-46
2022/05/07 06:28:27;;;;;;;8.37;6.27;;;;;;;15.87;53.72;102031.47;4985203;28;100029;-46
2022/05/07 06:30:53;;;;;;;7.30;6.70;;;;;;;15.91;53.64;102029.22;4987895;28;97009;-47
2022/05/07 06:33:20;;;;;;;7.37;6.57;;;;;;;15.97;53.56;102038.31;4986933;28;113476;-47
2022/05/07 06:35:46;;;;;;;7.50;6.80;;;;;;;16.01;53.61;102029.78;4987334;28;96927;-47
2022/05/07 06:38:12;;;;;;;8.47;6.80;;;;;;;16.08;53.71;102034.84;4987208;28;98448;-46
2022/05/07 06:40:38;;;;;;;6.57;5.83;;;;;;;16.16;53.79;102036.66;4988578;28;96886;-47
2022/05/07 06:43:07;;;;;;;7.30;6.37;;;;;;;16.25;54.03;102039.22;4986115;28;97199;-47
2022/05/07 06:45:33;;;;;;;7.30;6.60;;;;;;;16.35;53.59;102034.22;4986710;28;103297;-46
2022/05/07 06:47:59;;;;;;;7.10;6.40;;;;;;;16.45;53.90;102046.63;4986397;28;97608;-47
2022/05/07 06:50:24;;;;;;;8.47;6.70;;;;;;;16.55;53.77;102052.75;4987785;28;97520;-47
2022/05/07 06:52:50;;;;;;;9.10;6.57;;;;;;;16.66;53.67;102044.47;4988012;28;97138;-47
2022/05/07 06:55:17;;;;;;;8.97;7.70;;;;;;;16.78;53.77;102051.56;4985524;28;126728;-47
2022/05/07 06:57:43;;;;;;;7.50;6.67;;;;;;;16.89;53.41;102046.03;4986325;28;103915;-46
2022/05/07 07:00:12;;;;;;;9.00;6.50;;;;;;;16.96;53.44;102048.31;4987977;28;97605;-47
2022/05/07 07:02:38;;;;;;;7.17;6.43;;;;;;;17.08;53.43;102044.31;4990252;28;96979;-47
2022/05/07 07:05:04;;;;;;;6.20;5.70;;;;;;;17.19;53.45;102044.28;4986265;28;96945;-46
2022/05/07 07:07:30;;;;;;;7.10;6.40;;;;;;;17.30;53.50;102041.53;4988017;28;97315;-47
2022/05/07 07:09:56;;;;;;;7.43;6.53;;;;;;;17.42;53.50;102053.41;4989064;28;97417;-47
2022/05/07 07:12:21;;;;;;;7.17;6.47;;;;;;;17.47;53.47;102056.22;4986019;28;97053;-46
2022/05/07 07:14:47;;;;;;;7.40;6.20;;;;;;;17.53;53.65;102051.44;4983671;28;99940;-47
2022/05/07 07:17:15;;;;;;;7.00;6.40;;;;;;;17.61;53.67;102062.78;4986395;28;97208;-47
2022/05/07 07:19:42;;;;;;;7.07;6.23;;;;;;;17.72;53.42;102051.66;4985945;28;97200;-46
2022/05/07 07:22:07;;;;;;;8.73;6.50;;;;;;;17.83;53.44;102052.41;4981178;28;98333;-47
2022/05/07 07:24:32;;;;;;;6.80;6.20;;;;;;;17.93;53.37;102055.69;4985859;28;98682;-47
2022/05/07 07:26:58;;;;;;;7.43;6.70;;;;;;;18.09;53.17;102059.66;4985102;28;96960;-46
2022/05/07 07:29:23;;;;;;;9.93;7.27;;;;;;;18.20;53.13;102049.25;4988070;28;97197;-48
2022/05/07 07:31:49;;;;;;;9.20;7.30;;;;;;;18.35;53.03;102057.31;4988102;28;97314;-49
2022/05/07 07:34:14;;;;;;;8.70;7.17;;;;;;;18.44;52.83;102051.44;4985441;28;97836;-47
2022/05/07 07:36:39;;;;;;;8.30;6.80;;;;;;;18.53;52.80;102059.56;4984385;28;122685;-46
2022/05/07 07:39:07;;;;;;;7.80;7.10;;;;;;;18.60;52.68;102056.22;4985526;28;97214;-47
2022/05/07 07:41:34;;;;;;;8.43;7.57;;;;;;;18.67;52.76;102058.47;4987973;28;96813;-47
2022/05/07 07:43:59;;;;;;;8.17;7.07;;;;;;;18.76;52.63;102055.41;4983681;28;97040;-50
2022/05/07 07:49:09;;;;;;;12.07;8.53;;;;;;;18.90;52.41;102059.84;4983917;28;97353;-48
2022/05/07 07:51:34;;;;;;;10.23;7.10;;;;;;;18.99;52.28;102056.00;4983857;28;117825;-46
2022/05/07 07:54:00;;;;;;;8.60;7.60;;;;;;;19.06;52.23;102058.25;4985535;28;96855;-47
2022/05/07 07:56:25;;;;;;;8.47;7.60;;;;;;;19.11;52.20;102054.66;4984101;28;128257;-46
2022/05/07 07:58:51;;;;;;;7.00;6.40;;;;;;;19.13;52.20;102054.91;4988414;28;100473;-48
2022/05/07 08:01:17;;;;;;;8.07;7.27;;;;;;;19.16;52.15;102062.97;4983550;28;96648;-47
2022/05/07 08:03:42;;;;;;;7.60;6.90;;;;;;;19.23;52.13;102061.66;4985254;28;98445;-47
2022/05/07 08:06:07;;;;;;;9.30;7.03;;;;;;;19.32;51.99;102064.13;4984862;28;103862;-47
2022/05/07 08:14:02;;;;;;;9.47;7.30;;;;;;;19.76;51.22;102063.03;4984966;28;101487;-47
2022/05/07 08:16:27;;;;;;;7.93;7.03;;;;;;;19.92;51.07;102059.31;4986207;28;98289;-50
2022/05/07 08:18:53;;;;;;;7.70;6.90;;;;;;;20.10;50.67;102064.94;4984017;28;97150;-47
2022/05/07 08:21:19;;;;;;;9.93;8.30;;;;;;;20.33;50.57;102062.69;4984711;28;97280;-47
2022/05/07 08:23:44;;;;;;;8.53;7.70;;;;;;;20.48;50.19;102054.63;4986993;28;97496;-47
2022/05/07 08:26:10;;;;;;;9.70;7.47;;;;;;;20.68;49.95;102061.72;4984952;28;97360;-48
2022/05/07 08:28:37;;;;;;;7.97;7.27;;;;;;;20.77;49.72;102059.28;4983351;28;96771;-47
2022/05/07 08:31:04;;;;;;;7.77;6.97;;;;;;;20.90;49.58;102055.81;4985062;28;97020;-47
2022/05/07 08:33:31;;;;;;;8.97;7.50;;;;;;;21.02;49.42;102057.16;4986896;28;97595;-47
2022/05/07 08:35:57;;;;;;;8.67;7.47;;;;;;;21.09;49.36;102050.97;4987267;28;98426;-47
2022/05/07 08:38:22;;;;;;;9.13;7.80;;;;;;;21.18;49.12;102058.22;4986925;28;96944;-49
2022/05/07 08:40:48;;;;;;;8.40;7.50;;;;;;;21.22;49.16;102056.63;4984517;28;97241;-48
2022/05/07 08:43:15;;;;;;;7.77;6.97;;;;;;;21.30;48.86;102056.75;4984786;28;97484;-47
2022/05/07 08:45:41;;;;;;;8.03;7.23;;;;;;;21.35;48.80;102055.91;4987625;28;97054;-47
2022/05/07 08:48:07;;;;;;;7.20;6.50;;;;;;;21.42;48.80;102058.09;4988420;28;97176;-48
2022/05/07 08:50:33;;;;;;;7.60;6.83;;;;;;;21.44;48.60;102055.50;4986899;28;96930;-47
2022/05/07 08:52:58;;;;;;;7.90;7.20;;;;;;;21.50;48.39;102058.97;4990704;28;96965;-49
2022/05/07 08:55:24;;;;;;;7.60;6.50;;;;;;;21.61;48.33;102053.16;4988627;28;124256;-48
2022/05/07 08:57:51;;;;;;;11.00;7.63;;;;;;;21.72;47.98;102058.59;4991144;28;97233;-47
2022/05/07 09:00:19;;;;;;;12.73;7.00;;;;;;;21.78;47.33;102055.66;4988238;28;96917;-49
2022/05/07 09:02:51;;;;;;;6.93;6.30;;;;;;;21.80;47.21;102061.50;4987218;28;97002;-49
2022/05/07 09:05:19;;;;;;;7.40;5.97;;;;;;;21.84;47.08;102062.72;4989673;28;97253;-49
2022/05/07 09:07:56;;;;;;;7.60;5.90;;;;;;;21.98;46.89;102066.28;4988770;28;96825;-47
2022/05/07 09:10:26;;;;;;;5.40;4.53;;;;;;;22.21;46.87;102064.56;4989871;28;97239;-48
2022/05/07 09:12:52;;;;;;;6.33;5.27;;;;;;;22.37;46.48;102061.41;4988569;28;97667;-48
2022/05/07 09:15:17;;;;;;;6.00;5.07;;;;;;;22.47;46.23;102069.41;4989294;28;98477;-49
2022/05/07 09:17:46;;;;;;;4.83;4.43;;;;;;;22.51;45.74;102070.56;4986951;28;120369;-47
2022/05/07 09:20:18;;;;;;;5.80;4.80;;;;;;;22.60;45.47;102063.78;4989117;28;97072;-48
2022/05/07 09:22:54;;;;;;;5.03;3.80;;;;;;;22.71;44.86;102066.34;4989717;28;96751;-48
2022/05/07 09:25:24;;;;;;;4.80;4.30;;;;;;;22.77;45.13;102061.38;4988564;28;96902;-48
2022/05/07 09:27:51;;;;;;;3.97;3.57;;;;;;;22.80;45.12;102063.09;4988221;28;96872;-48
2022/05/07 09:30:21;;;;;;;4.80;3.90;;;;;;;22.87;44.48;102068.00;4990603;28;96914;-48
2022/05/07 09:32:49;;;;;;;4.00;3.60;;;;;;;22.93;44.60;102058.16;4988872;28;98284;-47
2022/05/07 09:38:24;;;;;;;4.70;3.50;;;;;;;23.04;43.79;102059.97;4947426;28;97489;-48
2022/05/07 09:40:50;;;;;;;3.30;3.00;;;;;;;23.18;44.04;102063.47;4939106;28;97022;-48
2022/05/07 09:43:16;;;;;;;3.03;1.90;;;;;;;23.28;43.60;102054.03;4962754;28;97257;-48
2022/05/07 09:45:42;;;;;;;2.97;2.67;;;;;;;23.45;43.50;102053.66;4988648;28;118739;-48
2022/05/07 09:48:10;;;;;;;2.23;2.13;;;;;;;23.51;43.05;102062.69;4986785;28;97624;-48
2022/05/07 09:58:42;;;;;;;2.20;2.00;;;;;;;23.71;42.51;102054.25;4987639;28;97195;-47
2022/05/07 10:01:20;;;;;;;2.07;1.97;;;;;;;23.74;40.98;102049.56;4987218;28;97208;-48
2022/05/07 10:03:56;;;;;;;2.70;2.10;;;;;;;23.77;41.48;102042.84;4991862;28;97072;-48
2022/05/07 10:06:45;;;;;;;2.50;1.83;;;;;;;23.64;40.79;102040.88;4989933;28;97314;-46
2022/05/07 10:09:17;;;;;;;3.47;2.97;;;;;;;23.70;41.49;102046.34;4986455;28;96863;-48
2022/05/07 10:11:44;;;;;;;2.50;2.30;;;;;;;23.73;41.46;102039.63;4987245;28;96976;-48
2022/05/07 10:14:10;;;;;;;2.63;2.20;;;;;;;23.89;41.55;102037.66;4988524;28;97368;-48
2022/05/07 10:16:35;;;;;;;2.50;2.30;;;;;;;23.98;41.31;102035.13;4989391;28;96766;-47
2022/05/07 10:19:10;;;;;;;2.57;2.37;;;;;;;24.12;39.03;102041.38;4988075;28;115925;-47
2022/05/07 10:21:36;;;;;;;5.53;2.67;;;;;;;24.17;41.04;102034.84;4990935;28;96841;-47
2022/05/07 10:24:01;;;;;;;3.00;2.80;;;;;;;24.31;41.13;102030.63;4988526;28;98011;-48
2022/05/07 10:26:41;;;;;;;3.57;2.00;;;;;;;24.51;40.02;102043.81;4988491;28;115888;-48
2022/05/07 10:29:07;;;;;;;2.30;1.80;;;;;;;24.68;40.60;102029.25;4988862;28;96742;-48
2022/05/07 10:31:44;;;;;;;2.80;2.17;;;;;;;24.86;38.52;102034.56;4988519;28;96813;-47
2022/05/07 10:34:09;;;;;;;2.90;1.77;;;;;;;24.95;39.18;102024.81;4986869;28;97592;-47
2022/05/07 10:36:35;;;;;;;1.70;1.53;;;;;;;25.12;39.18;102030.66;4987316;28;105946;-47
2022/05/07 10:39:07;;;;;;;1.60;1.50;;;;;;;25.31;37.94;102023.34;4989992;28;96730;-47
2022/05/07 10:41:32;;;;;;;1.80;1.70;;;;;;;25.39;38.60;102022.59;4988187;28;96936;-47
2022/05/07 10:43:58;;;;;;;2.00;1.90;;;;;;;25.58;38.42;102029.38;4990731;28;98565;-48
2022/05/07 10:46:23;;;;;;;1.90;1.80;;;;;;;25.71;38.04;102036.88;4987467;28;98311;-47
2022/05/07 10:48:50;;;;;;;2.07;1.97;;;;;;;25.86;37.87;102025.59;4990102;28;117573;-50
2022/05/07 10:51:51;;;;;;;2.23;2.00;;;;;;;25.97;36.31;102023.09;4991360;28;97083;-49
2022/05/07 10:54:21;;;;;;;1.63;1.53;;;;;;;26.12;37.48;102015.94;4986169;28;102078;-47
2022/05/07 10:56:51;;;;;;;1.60;1.50;;;;;;;26.32;36.99;102032.59;4988229;28;102567;-47
2022/05/07 10:59:17;;;;;;;2.47;1.30;;;;;;;26.58;36.59;102026.47;4986766;28;97065;-47
2022/05/07 11:01:42;;;;;;;1.50;1.40;;;;;;;26.66;36.20;102020.78;4989195;28;97264;-47
2022/05/07 11:04:10;;;;;;;1.90;1.00;;;;;;;26.72;36.06;102016.41;4987612;28;97007;-49
2022/05/07 11:06:49;;;;;;;1.40;1.30;;;;;;;26.63;33.21;102019.84;4988806;28;97124;-47
2022/05/07 11:09:26;;;;;;;1.40;1.30;;;;;;;26.45;35.02;102011.88;4987371;28;97341;-48
2022/05/07 11:11:56;;;;;;;2.10;1.23;;;;;;;26.21;35.26;102007.63;4982767;28;98530;-48
2022/05/07 11:14:23;;;;;;;6.37;1.30;;;;;;;26.11;35.33;102011.63;4987708;28;99074;-48
2022/05/07 11:16:49;;;;;;;2.47;2.10;;;;;;;25.75;35.32;102014.72;4985975;28;112452;-47
2022/05/07 11:19:29;;;;;;;1.57;1.47;;;;;;;25.34;35.46;102010.19;4982988;28;96981;-48
2022/05/07 11:21:56;;;;;;;2.20;1.70;;;;;;;25.23;35.97;102011.34;4986551;28;97094;-47
2022/05/07 11:24:22;;;;;;;2.03;1.57;;;;;;;25.61;36.17;102016.22;4986137;28;98564;-48
2022/05/07 11:27:14;;;;;;;1.90;1.63;;;;;;;26.15;34.29;102014.78;4985785;28;97172;-48
2022/05/07 11:29:40;;;;;;;2.77;1.87;;;;;;;26.38;34.76;102004.94;4981885;28;97260;-47
2022/05/07 11:32:07;;;;;;;2.03;1.43;;;;;;;26.35;34.72;102003.25;4988481;28;97276;-48
2022/05/07 11:34:37;;;;;;;2.60;1.60;;;;;;;26.35;34.40;101997.59;4987011;28;99900;-47
2022/05/07 11:37:19;;;;;;;3.03;1.30;;;;;;;26.48;34.18;101997.34;4983821;28;96858;-48
2022/05/07 11:39:56;;;;;;;1.67;1.57;;;;;;;26.53;33.81;102001.28;4986348;28;97209;-48
2022/05/07 11:42:45;;;;;;;2.33;1.00;;;;;;;26.42;34.68;101996.81;4983101;28;97235;-48
2022/05/07 11:45:27;;;;;;;1.87;1.20;;;;;;;26.41;34.74;102003.03;4976876;28;102849;-48
2022/05/07 11:48:14;;;;;;;1.60;1.50;;;;;;;26.36;34.43;102006.81;4984800;28;98345;-48